Latest Weather Observations for Toowoomba

IDQ60901

Issued at 10:51 am EST Tuesday 23 December 2014 (issued every 10 minutes, with the page automatically refreshed every 10 minutes)

About weather observations | Map of Brisbane area stations | Latest observations for Brisbane area | Other Formats
Station Details ID: 041529 Name: TOOWOOMBA AIRPORT Lat: -27.54 Lon: 151.91 Height: 640.9 m
Data from the previous 72 hours. | See also: Recent months at Toowoomba
Date/Time
EST
Tmp

°C
App
Tmp
°C
Dew
Point
°C
Rel
Hum
%
Delta-T

°C
Wind Press
QNH
hPa
Press
MSL
hPa
Rain
since
9 am
mm
Dir
 
Spd
km/h
Gust
km/h
Spd
kts
Gust
kts
23/10:30am 22.3 21.0 14.9 63 4.5 E 15 24 8 13 1019.8 - 0.0
23/10:00am 21.6 19.6 14.0 62 4.5 E 17 26 9 14 1019.8 - 0.0
23/09:30am 20.9 19.4 14.3 66 4.0 E 15 20 8 11 1020.0 - 0.0
23/09:00am 20.1 17.5 13.8 67 3.7 NE 20 30 11 16 1019.9 1016.6 0.0
23/08:30am 20.0 17.6 13.7 67 3.7 E 19 26 10 14 1020.0 - 0.0
23/08:00am 19.2 16.2 13.6 70 3.3 ENE 22 28 12 15 1019.8 - 0.0
23/07:38am 18.7 16.3 14.4 76 2.6 E 20 24 11 13 1020.0 - 0.0
23/07:30am 18.1 15.6 14.0 77 2.4 NE 20 26 11 14 1020.1 - 0.0
23/07:01am 17.9 16.0 14.2 79 2.2 E 17 24 9 13 1019.8 - 0.0
23/07:00am 17.8 15.9 14.1 79 2.2 E 17 24 9 13 1019.8 - 0.0
23/06:30am 17.4 14.8 13.9 80 2.1 E 20 28 11 15 1019.3 - 0.0
23/06:00am 16.3 14.7 14.0 86 1.3 E 15 19 8 10 1019.3 1016.0 0.0
23/05:30am 15.8 15.1 14.3 91 0.9 E 11 15 6 8 1019.2 - 0.0
23/05:00am 15.3 14.1 14.0 92 0.8 ENE 13 20 7 11 1018.5 - 0.0
23/04:30am 15.6 14.1 14.1 91 0.9 E 15 20 8 11 1018.3 - 0.0
23/04:14am 15.8 13.9 14.2 90 0.9 E 17 24 9 13 1018.3 - 0.0
23/04:00am 15.8 13.9 14.2 90 0.9 E 17 26 9 14 1018.3 - 0.0
23/03:30am 16.0 13.5 14.2 89 1.1 E 20 28 11 15 1018.1 - 0.0
23/03:00am 16.2 13.7 14.2 88 1.2 E 20 30 11 16 1018.3 1015.0 0.0
23/02:30am 16.4 13.2 14.2 87 1.3 E 24 32 13 17 1018.3 - 0.0
23/02:00am 16.6 13.5 14.4 87 1.3 E 24 33 13 18 1018.7 - 0.0
23/01:30am 16.7 12.8 14.3 86 1.4 E 28 37 15 20 1018.4 - 0.0
23/01:00am 16.9 14.2 14.7 87 1.3 E 22 32 12 17 1018.9 - 0.0
23/12:30am 16.8 13.4 14.8 88 1.2 E 26 37 14 20 1019.0 - 0.0
23/12:00am 17.0 13.6 14.8 87 1.3 E 26 33 14 18 1019.5 1016.2 0.0
 
Date/Time
EST
Tmp

°C
App
Tmp
°C
Dew
Point
°C
Rel
Hum
%
Delta-T

°C
Wind Press
QNH
hPa
Press
MSL
hPa
Rain
since
9 am
mm
Dir
 
Spd
km/h
Gust
km/h
Spd
kts
Gust
kts
22/11:51pm 17.1 14.8 14.7 86 1.4 E 20 32 11 17 1019.5 - 0.0
22/11:30pm 17.3 14.9 14.4 83 1.7 E 20 30 11 16 1019.8 - 0.0
22/11:00pm 17.3 15.0 14.2 82 1.8 E 19 26 10 14 1020.0 - 0.0
22/10:30pm 17.4 15.0 13.9 80 2.1 E 19 24 10 13 1020.2 - 0.0
22/10:00pm 17.8 15.2 13.7 77 2.4 E 20 28 11 15 1020.2 - 0.0
22/09:30pm 18.3 14.6 13.8 75 2.6 E 26 32 14 17 1020.0 - 0.0
22/09:00pm 18.8 15.0 13.6 72 3.0 E 26 37 14 20 1019.9 1016.6 0.0
22/08:30pm 19.5 16.0 13.4 68 3.6 E 24 32 13 17 1019.9 - 0.0
22/08:00pm 20.1 16.7 13.8 67 3.7 E 24 33 13 18 1019.7 - 0.0
22/07:30pm 20.5 17.7 14.4 68 3.7 E 22 30 12 16 1019.3 - 0.0
22/07:00pm 21.3 18.4 14.0 63 4.4 E 22 28 12 15 1019.0 - 0.0
22/06:30pm 22.3 18.6 13.9 59 5.0 E 26 35 14 19 1018.3 - 0.0
22/06:00pm 23.5 19.8 12.8 51 6.3 E 24 32 13 17 1017.8 1014.5 0.0
22/05:30pm 24.2 20.0 12.5 48 6.9 E 26 37 14 20 1017.5 - 0.0
22/05:00pm 24.7 20.7 13.0 48 7.0 ENE 26 32 14 17 1017.3 - 0.0
22/04:30pm 25.1 21.0 12.7 46 7.4 E 26 35 14 19 1017.4 - 0.0
22/04:00pm 25.0 21.4 13.2 48 7.1 E 24 33 13 18 1017.7 - 0.0
22/03:30pm 25.1 20.8 13.3 48 7.1 E 28 35 15 19 1017.8 - 0.0
22/03:00pm 25.2 22.3 14.0 49 6.8 E 22 32 12 17 1018.2 1014.9 0.0
22/02:30pm 24.7 21.5 13.0 48 7.0 ENE 22 30 12 16 1018.4 - 0.0
22/02:00pm 24.9 21.3 13.1 48 7.1 ENE 24 32 13 17 1018.9 - 0.0
22/01:30pm 24.8 21.9 14.0 51 6.5 E 22 30 12 16 1019.1 - 0.0
22/01:00pm 24.3 21.8 14.1 53 6.2 ENE 20 30 11 16 1019.6 - 0.0
22/12:30pm 23.8 21.0 14.2 55 5.8 E 22 37 12 20 1020.0 - 0.0
22/12:00pm 23.7 20.2 14.4 56 5.6 E 26 35 14 19 1020.4 1017.0 0.0
22/11:30am 23.1 18.0 13.8 55 5.6 E 33 44 18 24 1020.1 - 0.0
22/11:00am 22.6 18.1 13.9 58 5.2 E 30 39 16 21 1020.7 - 0.0
22/10:30am 22.1 18.7 14.7 63 4.5 E 26 37 14 20 1021.0 - 0.0
22/10:00am 21.2 18.5 14.6 66 4.0 E 22 35 12 19 1021.2 - 0.0
22/09:30am 20.4 18.0 14.3 68 3.6 ESE 20 32 11 17 1021.2 - 0.0
22/09:00am 20.1 17.0 14.5 70 3.3 E 24 32 13 17 1021.0 1017.7 0.0
22/08:30am 19.5 16.2 14.1 71 3.2 E 24 32 13 17 1021.0 - 0.0
22/08:15am 20.2 17.6 15.8 76 2.7 E 24 30 13 16 1020.8 - 0.0
22/08:00am 19.8 17.6 15.9 78 2.4 E 22 32 12 17 1020.8 - 0.0
22/07:30am 18.6 16.2 15.5 82 1.9 E 22 30 12 16 1020.5 - 0.0
22/07:00am 18.2 15.4 15.3 83 1.7 E 24 33 13 18 1020.4 - 0.0
22/06:49am 18.0 14.7 14.9 82 1.9 E 26 32 14 17 1020.2 - 0.0
22/06:30am 17.5 13.1 15.1 86 1.4 E 32 43 17 23 1019.8 - 0.0
22/06:00am 16.9 12.2 14.9 88 1.2 E 33 43 18 23 1019.3 1016.0 0.0
22/05:30am 16.7 12.2 14.9 89 1.1 E 32 39 17 21 1018.8 - 0.0
22/05:00am 16.5 12.8 14.9 90 1.0 E 28 35 15 19 1018.7 - 0.0
22/04:30am 16.7 13.0 15.1 90 1.0 E 28 37 15 20 1018.4 - 0.0
22/04:00am 16.8 13.2 15.2 90 1.0 E 28 35 15 19 1018.5 - 0.0
22/03:30am 16.9 12.9 15.2 90 1.0 E 30 37 16 20 1018.2 - 0.0
22/03:21am 17.0 13.4 15.3 90 1.0 E 28 37 15 20 1018.3 - 0.0
22/03:00am 17.1 12.8 15.3 89 1.1 E 32 41 17 22 1018.3 1015.0 0.0
22/02:30am 17.5 14.8 15.7 89 1.1 E 24 37 13 20 1018.8 - 0.0
22/02:00am 17.5 14.5 15.8 90 1.0 ENE 26 35 14 19 1019.2 - 0.0
22/01:30am 17.5 14.1 15.7 89 1.1 E 28 35 15 19 1019.1 - 0.0
22/01:00am 17.6 12.9 15.9 90 1.0 E 35 44 19 24 1019.2 - 0.0
22/12:30am 17.9 13.7 16.1 89 1.1 E 33 41 18 22 1019.4 - 0.0
22/12:00am 18.0 14.0 16.2 89 1.1 E 32 41 17 22 1019.5 1016.2 0.0
 
Date/Time
EST
Tmp

°C
App
Tmp
°C
Dew
Point
°C
Rel
Hum
%
Delta-T

°C
Wind Press
QNH
hPa
Press
MSL
hPa
Rain
since
9 am
mm
Dir
 
Spd
km/h
Gust
km/h
Spd
kts
Gust
kts
21/11:30pm 18.1 14.4 16.1 88 1.2 E 30 39 16 21 1019.7 - 0.0
21/11:00pm 18.3 14.1 16.3 88 1.2 E 33 41 18 22 1020.0 - 0.0
21/10:30pm 18.5 14.0 16.3 87 1.4 E 35 44 19 24 1020.6 - 0.0
21/10:00pm 18.8 15.2 16.2 85 1.6 E 30 37 16 20 1020.6 - 0.0
21/09:33pm 18.9 15.2 16.1 84 1.7 E 30 39 16 21 1020.4 - 0.0
21/09:30pm 19.0 15.4 16.2 84 1.7 E 30 41 16 22 1020.4 - 0.0
21/09:00pm 19.2 15.2 16.1 82 1.9 E 32 41 17 22 1019.9 1016.6 0.0
21/08:30pm 19.8 16.2 16.3 80 2.2 E 30 37 16 20 1019.6 - 0.0
21/08:00pm 20.4 16.9 16.4 78 2.5 E 30 43 16 23 1019.7 - 0.0
21/07:30pm 21.2 17.4 16.6 75 2.9 E 32 44 17 24 1019.3 - 0.0
21/07:00pm 22.0 18.8 16.3 70 3.5 E 28 35 15 19 1018.9 - 0.0
21/06:30pm 23.1 20.3 15.4 62 4.7 E 24 30 13 16 1018.4 - 0.0
21/06:00pm 23.6 21.2 15.4 60 5.1 ENE 22 26 12 14 1017.9 1014.6 0.0
21/05:30pm 24.7 22.4 15.6 57 5.7 E 22 32 12 17 1017.7 - 0.0
21/05:00pm 24.8 22.0 15.4 56 5.8 E 24 32 13 17 1017.5 - 0.0
21/04:30pm 25.0 22.9 15.3 55 6.0 ENE 20 28 11 15 1017.5 - 0.0
21/04:00pm 24.9 22.5 15.5 56 5.8 ENE 22 24 12 13 1017.9 - 0.0
21/03:30pm 25.4 23.9 16.3 57 5.7 E 19 24 10 13 1018.0 - 0.0
21/03:00pm 25.3 23.9 15.6 55 6.0 ENE 17 30 9 16 1018.3 1015.0 0.0
21/02:30pm 24.7 21.9 15.3 56 5.8 ENE 24 30 13 16 1018.8 - 0.0
21/02:00pm 24.7 22.4 15.6 57 5.7 E 22 30 12 16 1019.2 - 0.0
21/01:30pm 25.3 24.5 17.2 61 5.2 NE 17 26 9 14 1019.4 - 0.0
21/01:00pm 24.1 22.5 15.1 57 5.5 NE 17 24 9 13 1019.7 - 0.0
21/12:30pm 24.8 23.8 15.7 57 5.7 ENE 15 24 8 13 1019.9 - 0.0
21/12:00pm 24.7 23.2 16.2 59 5.3 NE 19 26 10 14 1020.2 1016.9 0.0
21/11:30am 23.8 22.7 16.3 63 4.7 E 17 20 9 11 1020.8 - 0.0
21/11:00am 23.6 22.0 15.9 62 4.8 ENE 19 28 10 15 1021.0 - 0.0
21/10:30am 23.0 21.1 15.8 64 4.5 E 20 30 11 16 1021.1 - 0.0
21/10:00am 22.6 19.7 15.0 62 4.6 ENE 24 33 13 18 1021.3 - 0.0
21/09:30am 21.7 19.0 15.5 68 3.8 E 24 32 13 17 1021.2 - 0.0
21/09:00am 20.8 17.9 15.1 70 3.5 NE 24 30 13 16 1021.1 1017.8 0.0
21/08:30am 20.5 17.8 16.5 78 2.5 E 26 35 14 19 1021.1 - 0.0
21/08:00am 19.6 15.7 15.5 77 2.5 E 30 39 16 21 1021.0 - 0.0
21/07:41am 19.2 15.4 15.7 80 2.1 E 30 39 16 21 1021.0 - 0.0
21/07:30am 19.0 14.9 15.9 82 1.9 E 32 39 17 21 1020.9 - 0.0
21/07:00am 18.2 14.9 16.0 87 1.3 E 28 35 15 19 1020.5 - 0.0
21/06:30am 17.5 14.3 16.2 92 0.8 E 28 43 15 23 1019.9 - 0.0
21/06:00am 16.9 13.6 16.1 95 0.5 E 28 37 15 20 1019.6 1016.3 0.0
21/05:30am 16.7 13.0 15.9 95 0.5 E 30 39 16 21 1019.2 - 0.0
21/05:00am 16.8 13.4 15.8 94 0.6 E 28 37 15 20 1019.0 - 0.0
21/04:30am 16.9 13.2 15.9 94 0.6 E 30 41 16 22 1018.7 - 0.0
21/04:00am 16.9 12.6 15.9 94 0.6 E 33 43 18 23 1018.2 - 0.0
21/03:30am 16.9 12.8 15.9 94 0.6 E 32 43 17 23 1018.0 - 0.0
21/03:00am 17.0 12.9 15.9 93 0.7 E 32 39 17 21 1018.0 1014.7 0.0
21/02:30am 16.9 12.2 15.8 93 0.7 E 35 43 19 23 1017.9 - 0.0
21/02:00am 17.0 12.6 15.7 92 0.8 E 33 44 18 24 1018.2 - 0.0
21/01:30am 17.1 11.5 15.6 91 0.9 E 39 48 21 26 1018.2 - 0.0
21/01:25am 17.1 11.9 15.6 91 0.9 E 37 46 20 25 1018.2 - 0.0
21/01:00am 17.3 12.1 15.6 90 1.0 E 37 48 20 26 1018.2 - 0.0
21/12:32am 17.3 11.7 15.5 89 1.1 E 39 48 21 26 1018.4 - 0.0
21/12:30am 17.3 12.1 15.5 89 1.1 E 37 48 20 26 1018.4 - 0.0
21/12:21am 17.4 12.5 15.4 88 1.2 E 35 43 19 23 1018.7 - 0.0
21/12:17am 17.4 12.5 15.4 88 1.2 E 35 43 19 23 1018.7 - 0.0
21/12:04am 17.5 12.2 15.3 87 1.3 E 37 44 20 24 1018.7 - 0.0
21/12:00am 17.6 12.3 15.4 87 1.3 E 37 48 20 26 1018.8 1015.4 0.0
 
Date/Time
EST
Tmp

°C
App
Tmp
°C
Dew
Point
°C
Rel
Hum
%
Delta-T

°C
Wind Press
QNH
hPa
Press
MSL
hPa
Rain
since
9 am
mm
Dir
 
Spd
km/h
Gust
km/h
Spd
kts
Gust
kts
20/11:30pm 17.7 12.7 15.1 85 1.6 E 35 46 19 25 1019.2 - 0.0
20/11:05pm 17.8 11.7 15.2 85 1.6 E 41 50 22 27 1019.2 - 0.0
20/11:00pm 17.9 11.8 15.2 84 1.6 E 41 52 22 28 1019.2 - 0.0
20/10:30pm 18.3 13.1 15.6 84 1.6 E 37 48 20 26 1019.3 - 0.0
20/10:00pm 18.5 13.0 15.7 84 1.7 E 39 50 21 27 1019.1 - 0.0
20/09:30pm 18.8 12.8 15.5 81 2.0 E 41 50 22 27 1019.0 - 0.0
20/09:25pm 18.9 13.3 15.4 80 2.1 E 39 50 21 27 1019.0 - 0.0
20/09:00pm 19.3 14.2 15.8 80 2.1 E 37 46 20 25 1018.9 1015.5 0.0
20/08:30pm 19.7 15.5 15.8 78 2.4 E 32 44 17 24 1018.7 - 0.0
20/08:00pm 20.1 15.3 15.7 76 2.7 E 35 46 19 25 1018.0 - 0.0
20/07:30pm 20.6 15.4 15.6 73 3.1 E 37 44 20 24 1017.6 - 0.0
20/07:00pm 21.2 16.7 15.3 69 3.6 E 33 46 18 25 1017.2 - 0.0
20/06:30pm 22.2 17.8 15.1 64 4.3 E 32 43 17 23 1016.7 - 0.0
20/06:00pm 23.4 19.4 15.2 60 5.0 E 30 37 16 20 1016.3 1012.9 0.0
20/05:30pm 24.2 19.9 15.4 58 5.4 E 32 39 17 21 1016.1 - 0.0
20/05:00pm 24.9 21.3 15.2 54 6.0 E 28 35 15 19 1015.8 - 0.0
20/04:30pm 26.0 23.6 16.3 55 6.1 E 24 32 13 17 1015.6 - 0.0
20/04:00pm 25.7 22.9 16.3 56 5.9 E 26 30 14 16 1015.6 - 0.0
20/03:30pm 25.9 22.9 15.9 54 6.3 E 26 35 14 19 1015.7 - 0.0
20/03:00pm 26.0 23.4 16.0 54 6.3 E 24 30 13 16 1015.9 1012.5 0.0
20/02:30pm 26.3 23.7 16.0 53 6.5 ENE 24 33 13 18 1016.2 - 0.0
20/02:00pm 26.2 23.7 17.0 57 5.9 ESE 26 33 14 18 1016.5 - 0.0
20/01:30pm 25.8 23.3 16.1 55 6.1 E 24 35 13 19 1017.0 - 0.0
20/01:00pm 25.3 24.0 17.2 61 5.2 E 20 26 11 14 1017.6 - 0.0
20/12:30pm 25.0 23.5 16.4 59 5.4 E 19 26 10 14 1017.9 - 0.0
20/12:00pm 24.5 22.5 16.5 61 5.0 E 22 28 12 15 1018.2 1014.9 0.0
20/11:30am 24.1 21.7 16.4 62 4.8 E 24 44 13 24 1018.4 - 0.0
20/11:00am 23.4 20.5 16.2 64 4.5 E 26 41 14 22 1018.7 - 0.0

Latest Capital City Observations: Canberra | Sydney | Melbourne | Brisbane | Adelaide | Perth | Hobart | Darwin

Other Formats:

Comma delimited format used in spreadsheet applications
http://www.bom.gov.au/fwo/IDQ60901/IDQ60901.95551.axf

JavaScript Object Notation format (JSON) in row-major order
http://www.bom.gov.au/fwo/IDQ60901/IDQ60901.95551.json